createdAt,value
2023-09-23T00:00:54.415Z,98261.77
2023-09-23T00:06:15.724Z,98266.58
2023-09-23T00:11:28.324Z,98263.25
2023-09-23T00:16:36.251Z,98273.26
2023-09-23T00:21:44.312Z,98287.20
2023-09-23T00:26:59.916Z,98285.20
2023-09-23T00:32:08.055Z,98288.88
2023-09-23T00:37:16.724Z,98284.91
2023-09-23T00:42:25.996Z,98272.55
2023-09-23T00:47:33.857Z,98266.64
2023-09-23T00:52:42.787Z,98257.73
2023-09-23T00:57:54.788Z,98259.09
2023-09-23T01:03:02.536Z,98236.14
2023-09-23T01:08:20.182Z,98224.35
2023-09-23T01:13:31.078Z,98226.16
2023-09-23T01:18:40.281Z,98230.46
2023-09-23T01:23:49.184Z,98232.33
2023-09-23T01:28:57.658Z,98230.61
2023-09-23T01:34:06.244Z,98240.95
2023-09-23T01:39:14.504Z,98238.02
2023-09-23T01:44:22.293Z,98241.58
2023-09-23T01:49:31.265Z,98243.21
2023-09-23T01:54:38.760Z,98239.35
2023-09-23T01:59:46.361Z,98247.42
2023-09-23T02:04:53.836Z,98263.02
2023-09-23T02:10:05.310Z,98271.25
2023-09-23T02:15:18.683Z,98276.70
2023-09-23T02:23:20.220Z,98276.87
2023-09-23T02:28:28.422Z,98288.50
2023-09-23T02:33:35.735Z,98302.68
2023-09-23T02:38:45.361Z,98302.79
2023-09-23T02:43:54.239Z,98308.64
2023-09-23T02:49:02.168Z,98324.42
2023-09-23T02:54:12.981Z,98323.48
2023-09-23T02:59:27.675Z,98324.84
2023-09-23T03:04:35.355Z,98343.92
2023-09-23T03:09:56.772Z,98343.23
2023-09-23T03:15:15.926Z,98338.13
2023-09-23T03:20:26.642Z,98347.48
2023-09-23T03:25:34.562Z,98361.40
2023-09-23T03:30:44.796Z,98367.18
2023-09-23T03:35:52.375Z,98383.56
2023-09-23T03:41:03.862Z,98382.63
2023-09-23T03:46:17.712Z,98387.44
2023-09-23T03:51:28.152Z,98396.52
2023-09-23T03:56:36.005Z,98402.23
2023-09-23T04:01:43.458Z,98406.50
2023-09-23T04:06:54.510Z,98401.73
2023-09-23T04:12:04.408Z,98393.20
2023-09-23T04:17:16.399Z,98425.16
2023-09-23T04:23:21.813Z,98439.98
2023-09-23T04:38:21.848Z,98425.36
2023-09-23T04:43:32.294Z,98418.89
2023-09-23T04:48:47.421Z,98430.28
2023-09-23T04:53:55.549Z,98430.98
2023-09-23T04:59:05.496Z,98427.95
2023-09-23T05:04:14.352Z,98449.11
2023-09-23T05:09:21.863Z,98449.29
2023-09-23T05:14:29.322Z,98443.12
2023-09-23T05:19:37.439Z,98441.61
2023-09-23T05:24:49.080Z,98458.59
2023-09-23T05:29:56.728Z,98468.18
2023-09-23T05:35:11.216Z,98487.60
2023-09-23T05:40:29.013Z,98488.89
2023-09-23T05:45:37.236Z,98487.47
2023-09-23T05:50:44.883Z,98493.33
2023-09-23T05:55:58.480Z,98511.31
2023-09-23T06:01:07.764Z,98515.64
2023-09-23T06:06:15.806Z,98525.23
2023-09-23T06:11:26.611Z,98538.46
2023-09-23T06:16:35.875Z,98542.77
2023-09-23T06:21:43.346Z,98544.41
2023-09-23T06:26:52.168Z,98545.34
2023-09-23T06:32:00.981Z,98552.24
2023-09-23T06:37:08.894Z,98557.88
2023-09-23T06:42:17.852Z,98577.03
2023-09-23T06:47:27.918Z,98584.47
2023-09-23T06:52:37.470Z,98601.65
2023-09-23T06:57:45.553Z,98618.60
2023-09-23T07:02:55.595Z,98632.35
2023-09-23T07:08:03.263Z,98639.89
2023-09-23T07:13:13.194Z,98647.16
2023-09-23T07:23:23.418Z,98675.64
2023-09-23T07:28:31.634Z,98678.13
2023-09-23T07:33:39.335Z,98681.16
2023-09-23T07:38:47.333Z,98683.30
2023-09-23T07:43:58.751Z,98676.45
2023-09-23T07:49:10.953Z,98676.36
2023-09-23T07:54:20.136Z,98676.34
2023-09-23T07:59:28.824Z,98676.80
2023-09-23T08:04:36.976Z,98673.96
2023-09-23T08:09:44.358Z,98667.94
2023-09-23T08:14:52.469Z,98670.27
2023-09-23T08:20:01.125Z,98679.98
2023-09-23T08:25:10.141Z,98677.95
2023-09-23T08:40:22.177Z,98695.52
2023-09-23T08:45:32.542Z,98699.13
2023-09-23T08:50:44.854Z,98708.14
2023-09-23T08:55:55.816Z,98709.90
2023-09-23T09:01:04.413Z,98723.94
2023-09-23T09:06:21.042Z,98727.29
2023-09-23T09:11:26.654Z,98745.05
2023-09-23T09:16:34.384Z,98759.51
2023-09-23T09:23:20.574Z,98766.51
2023-09-23T09:28:28.782Z,98754.46
2023-09-23T09:33:39.710Z,98747.51
2023-09-23T09:38:51.910Z,98748.27
2023-09-23T09:44:02.092Z,98755.16
2023-09-23T09:49:10.457Z,98752.05
2023-09-23T09:54:20.569Z,98753.77
2023-09-23T09:59:33.448Z,98757.71
2023-09-23T10:04:47.352Z,98777.82
2023-09-23T10:09:56.484Z,98777.70
2023-09-23T10:15:05.395Z,98782.94
2023-09-23T10:20:19.869Z,98790.61
2023-09-23T10:25:38.357Z,98781.93
2023-09-23T10:30:46.776Z,98784.33
2023-09-23T10:35:54.908Z,98775.17
2023-09-23T10:41:02.614Z,98767.84
2023-09-23T10:46:11.222Z,98765.02
2023-09-23T10:51:19.280Z,98770.34
2023-09-23T10:56:34.690Z,98755.71
2023-09-23T11:01:42.824Z,98754.92
2023-09-23T11:06:50.469Z,98759.48
2023-09-23T11:12:08.224Z,98760.54
2023-09-23T11:17:27.819Z,98748.44
2023-09-23T11:22:37.107Z,98745.94
2023-09-23T11:27:54.193Z,98751.09
2023-09-23T11:33:02.498Z,98739.55
2023-09-23T11:38:18.591Z,98720.48
2023-09-23T11:43:31.051Z,98703.51
2023-09-23T11:48:43.170Z,98712.65
2023-09-23T11:53:50.611Z,98739.90
2023-09-23T11:59:07.646Z,98750.05
2023-09-23T12:04:16.636Z,98753.28
2023-09-23T12:09:25.739Z,98758.24
2023-09-23T12:14:36.233Z,98757.96
2023-09-23T12:19:45.553Z,98764.17
2023-09-23T12:24:54.115Z,98767.55
2023-09-23T12:30:02.453Z,98769.30
2023-09-23T12:35:12.969Z,98769.20
2023-09-23T12:40:20.647Z,98756.12
2023-09-23T12:45:28.630Z,98763.05
2023-09-23T12:50:36.941Z,98787.59
2023-09-23T12:55:44.487Z,98789.31
2023-09-23T13:00:51.948Z,98817.57
2023-09-23T13:05:59.979Z,98837.83
2023-09-23T13:11:07.844Z,98846.41
2023-09-23T13:16:17.024Z,98853.02
2023-09-23T13:21:25.697Z,98839.30
2023-09-23T13:26:33.756Z,98844.29
2023-09-23T13:31:41.226Z,98859.27
2023-09-23T13:36:51.596Z,98878.26
2023-09-23T13:42:00.355Z,98880.65
2023-09-23T13:47:08.619Z,98865.10
2023-09-23T13:52:16.979Z,98868.46
2023-09-23T13:57:24.529Z,98875.85
2023-09-23T14:02:34.003Z,98882.05
2023-09-23T14:07:42.358Z,98889.35
2023-09-23T14:12:49.984Z,98894.70
2023-09-23T14:17:58.485Z,98895.92
2023-09-23T14:23:07.267Z,98906.58
2023-09-23T14:28:16.649Z,98928.48
2023-09-23T14:33:25.166Z,98945.34
2023-09-23T14:38:34.091Z,98954.05
2023-09-23T14:43:41.974Z,98964.76
2023-09-23T14:48:49.623Z,98967.74
2023-09-23T14:53:57.287Z,98963.01
2023-09-23T14:59:05.374Z,98969.17
2023-09-23T15:04:14.327Z,98971.38
2023-09-23T15:09:22.059Z,98983.23
2023-09-23T15:14:30.310Z,98991.45
2023-09-23T15:19:38.110Z,98997.13
2023-09-23T15:24:51.225Z,99007.95
2023-09-23T15:30:01.556Z,99029.58
2023-09-23T15:35:10.885Z,99047.66
2023-09-23T15:40:19.277Z,99050.86
2023-09-23T15:45:29.200Z,99050.95
2023-09-23T15:50:37.264Z,99060.93
2023-09-23T15:55:48.577Z,99061.52
2023-09-23T16:00:57.107Z,99061.03
2023-09-23T16:06:05.270Z,99056.08
2023-09-23T16:11:13.086Z,99066.48
2023-09-23T16:16:22.996Z,99080.40
2023-09-23T16:21:31.385Z,99083.34
2023-09-23T16:26:39.201Z,99082.47
2023-09-23T16:31:48.990Z,99089.12
2023-09-23T16:36:57.461Z,99102.48
2023-09-23T16:42:05.822Z,99107.54
2023-09-23T16:47:15.161Z,99117.06
2023-09-23T16:52:22.834Z,99114.23
2023-09-23T16:57:31.763Z,99115.73
2023-09-23T17:02:39.858Z,99126.11
2023-09-23T17:07:47.958Z,99136.30
2023-09-23T17:12:56.416Z,99138.18
2023-09-23T17:18:04.487Z,99144.62
2023-09-23T17:23:12.486Z,99146.95
2023-09-23T17:28:20.508Z,99150.80
2023-09-23T17:33:28.512Z,99161.75
2023-09-23T17:38:39.109Z,99173.52
2023-09-23T17:43:46.899Z,99186.64
2023-09-23T17:48:54.722Z,99191.50
2023-09-23T17:54:02.764Z,99197.65
2023-09-23T17:59:11.092Z,99209.20
2023-09-23T18:04:19.912Z,99215.41
2023-09-23T18:09:27.779Z,99228.88
2023-09-23T18:14:36.069Z,99234.67
2023-09-23T18:19:45.751Z,99244.45
2023-09-23T18:24:56.006Z,99258.23
2023-09-23T18:30:04.100Z,99267.65
2023-09-23T18:35:13.170Z,99266.64
2023-09-23T18:40:20.723Z,99268.23
2023-09-23T18:45:28.426Z,99266.48
2023-09-23T18:50:37.433Z,99271.95
2023-09-23T18:55:45.923Z,99282.00
2023-09-23T19:00:54.034Z,99285.06
2023-09-23T19:06:02.269Z,99283.11
2023-09-23T19:11:10.082Z,99290.02
2023-09-23T19:16:17.719Z,99304.31
2023-09-23T19:21:26.674Z,99311.16
2023-09-23T19:26:45.037Z,99313.55
2023-09-23T19:32:01.926Z,99302.05
2023-09-23T19:37:09.735Z,99295.49
2023-09-23T19:42:18.422Z,99291.15
2023-09-23T19:47:27.152Z,99291.48
2023-09-23T19:52:37.972Z,99292.89
2023-09-23T19:57:49.643Z,99301.30
2023-09-23T20:02:57.467Z,99301.20
2023-09-23T20:08:07.145Z,99303.88
2023-09-23T20:13:15.031Z,99301.69
2023-09-23T20:18:23.069Z,99310.76
2023-09-23T20:23:33.675Z,99306.64
2023-09-23T20:28:42.406Z,99306.61
2023-09-23T20:33:50.241Z,99309.27
2023-09-23T20:38:59.848Z,99311.38
2023-09-23T20:52:44.581Z,99321.39
2023-09-23T20:57:49.015Z,99314.70
2023-09-23T21:02:53.249Z,99321.73
2023-09-23T21:07:57.925Z,99335.34
2023-09-23T21:13:06.355Z,99346.94
2023-09-23T21:18:10.865Z,99358.51
2023-09-23T21:23:15.249Z,99363.05
2023-09-23T21:28:20.644Z,99364.11
2023-09-23T21:33:25.168Z,99366.70
2023-09-23T21:38:32.820Z,99380.13
2023-09-23T21:43:37.314Z,99383.40
2023-09-23T21:48:43.696Z,99382.87
2023-09-23T21:53:48.228Z,99385.02
2023-09-23T21:58:53.057Z,99389.03
2023-09-23T22:03:57.236Z,99385.66
2023-09-23T22:09:01.621Z,99380.78
2023-09-23T22:14:09.967Z,99376.52
2023-09-23T22:19:15.363Z,99381.46
2023-09-23T22:24:21.657Z,99389.15
2023-09-23T22:29:28.352Z,99388.06
2023-09-23T22:34:33.296Z,99392.62
2023-09-23T22:39:43.555Z,99385.89
2023-09-23T22:44:54.252Z,99387.71
2023-09-23T22:50:00.274Z,99393.67
2023-09-23T22:55:11.558Z,99395.40
2023-09-23T23:00:18.578Z,99403.95
2023-09-23T23:05:26.183Z,99411.55
2023-09-23T23:10:31.092Z,99411.54
2023-09-23T23:15:39.073Z,99419.66
2023-09-23T23:20:44.958Z,99427.00
2023-09-23T23:25:49.249Z,99432.45
2023-09-23T23:30:54.674Z,99432.55
2023-09-23T23:36:00.695Z,99437.73
2023-09-23T23:41:05.110Z,99437.80
2023-09-23T23:46:11.012Z,99440.10
2023-09-23T23:51:16.133Z,99440.02
2023-09-23T23:56:20.296Z,99441.08
